Fuglevik, Norway

1:41 PM CEST on June 23, 2017 (GMT +0200)
Bakkeveien | | Change Station

Elev 65 ft 59.42 °N, 10.66 °E | Updated 3 minutes ago

Rain
Rain
63.1 °F
Feels Like 63.1 °F
N
2.5
Wind Variable Wind from South
Gusts 5.0 mph

Today
High -- | Low -- °F
--% Chance of Precip.
Yesterday
High -- | Low -- °F
Precip. -- in
Pressure 29.68 in
Visibility 6.2 miles
Clouds Mostly Cloudy 2500 ft
Dew Point 55 °F
Humidity 74%
Rainfall 0.00 in
Snow Depth Not available.
4:00 AM 10:38 PM
Waning Crescent, 1% visible
METAR ENRY 231120Z 21009KT 9999 BKN025 16/12 Q1005 TEMPO RA
Pressure 29.68 in
Visibility 6.2 miles
Clouds Mostly Cloudy 2500 ft
Dew Point 55 °F
Humidity 74%
Rainfall 0.00 in
Snow Depth Not available.
4:00 AM 10:38 PM
Waning Crescent, 1% visible
METAR ENRY 231120Z 21009KT 9999 BKN025 16/12 Q1005 TEMPO RA

Get Severe Weather Alerts

Thanks for signing up!

Be on the lookout for a verification email in your inbox.

You'll start receiving the daily forecast at 6 AM.

×

10-Day Weather Forecast

×

Almanac

Astronomy

Jun. 23, 2017 Rise Set
Actual Time
Civil Twilight
Nautical Twilight
Astronomical Twilight
Moon
Length of Visible Light
Length of Day
Tomorrow will be .
, % of the Moon is Illuminated

Today's Extremes

Country Highs Country Lows

Community

WunderPhotos

Category 6

Welcome to Category 6. This is the collective home for Weather Underground's featured writeups by Dr. Jeff Masters (right), Bob Henson (left), Chris Burt, and other regular contributors.

Nearby

Air Quality

  Air Quality AQ Index Pollutant
Not available.

Snow Depth

Station Depth Elevation

Earthquake Activity

City Distance Mag. Time & Date
Minimum magnitude displayed is 2.5.

Coastal Water Temperatures

Place Temperature

Stations

Nearby Weather Stations

Station Location Temp. Windchill Dew Point Humidity Wind Precip. Elev Updated Type